ENT6HU LGRP-EPWA
Flight info
| Callsign | ENT6HU |
|---|---|
| Flight time | 2h 40m |
| Altitude | 36000 |
| Route | VANES UM601 ADESO UN133 GIKAS/N0457F370 UN133 PEREN/N0458F380 UN133 ATFIR DCT LOMOS/N0452F360 DCT NARKA DCT PERIT DCT KEKED DCT LENOV/N0442F340 DCT ORTEB/N0409F280 DCT KONZI DCT LOGDA |
| Aircraft | B738/M-SDFGHIJ1RWXY/EB1 |
Departure
| Time | 2026-05-01 09:35 |
|---|---|
| Airport | Rhodes International Airport "Diagoras" (LGRP) |
Arrival
| Time | 2026-05-01 12:15 |
|---|---|
| Airport | Warsaw Chopin Airport (EPWA) |
| Time | Latitude | Longitude | Altitude | Speed | Heading |
|---|---|---|---|---|---|
| 2026-05-01 08:38 | 36.40326 | 28.08977 | 28 ft | 0 kts | 160° |
| 2026-05-01 09:00 | 36.40327 | 28.08977 | 28 ft | 0 kts | 160° |
| 2026-05-01 09:23 | 36.40337 | 28.08972 | 28 ft | 4 kts | 160° |
| 2026-05-01 09:23 | 36.40383 | 28.08951 | 28 ft | 4 kts | 141° |
| 2026-05-01 09:24 | 36.40398 | 28.08898 | 28 ft | 0 kts | 95° |
| 2026-05-01 09:27 | 36.40397 | 28.08911 | 28 ft | 3 kts | 95° |
| 2026-05-01 09:27 | 36.40397 | 28.08958 | 28 ft | 8 kts | 85° |
| 2026-05-01 09:28 | 36.40411 | 28.09038 | 28 ft | 11 kts | 70° |
| 2026-05-01 09:28 | 36.40441 | 28.09146 | 28 ft | 15 kts | 70° |
| 2026-05-01 09:28 | 36.40481 | 28.09277 | 28 ft | 17 kts | 69° |
| 2026-05-01 09:28 | 36.40541 | 28.09378 | 28 ft | 13 kts | 35° |
| 2026-05-01 09:29 | 36.40631 | 28.09564 | 27 ft | 13 kts | 70° |
| 2026-05-01 09:29 | 36.40662 | 28.09671 | 29 ft | 14 kts | 70° |
| 2026-05-01 09:30 | 36.40739 | 28.09933 | 21 ft | 17 kts | 70° |
| 2026-05-01 09:30 | 36.40778 | 28.10066 | 19 ft | 16 kts | 70° |
| 2026-05-01 09:30 | 36.40852 | 28.10318 | 22 ft | 15 kts | 70° |
| 2026-05-01 09:31 | 36.40885 | 28.10416 | 24 ft | 8 kts | 51° |
| 2026-05-01 09:31 | 36.40934 | 28.10431 | 22 ft | 8 kts | 347° |
| 2026-05-01 09:31 | 36.40950 | 28.10422 | 22 ft | 0 kts | 333° |
| 2026-05-01 09:32 | 36.40951 | 28.10421 | 22 ft | 1 kts | 333° |
| 2026-05-01 09:32 | 36.41016 | 28.10338 | 23 ft | 10 kts | 313° |
| 2026-05-01 09:32 | 36.41027 | 28.10299 | 25 ft | 4 kts | 256° |
| 2026-05-01 09:33 | 36.41024 | 28.10287 | 22 ft | 0 kts | 250° |
| 2026-05-01 09:34 | 36.40990 | 28.10171 | 24 ft | 46 kts | 250° |
| 2026-05-01 09:35 | 36.40797 | 28.09509 | 28 ft | 114 kts | 250° |
| 2026-05-01 09:35 | 36.40050 | 28.06942 | 778 ft | 168 kts | 252° |
| 2026-05-01 09:35 | 36.39846 | 28.05499 | 1613 ft | 173 kts | 265° |
| 2026-05-01 09:36 | 36.39737 | 28.03984 | 2264 ft | 185 kts | 265° |
| 2026-05-01 09:36 | 36.39612 | 28.02276 | 2501 ft | 211 kts | 266° |
| 2026-05-01 09:36 | 36.39470 | 28.00379 | 2792 ft | 227 kts | 266° |
| 2026-05-01 09:36 | 36.39324 | 27.98383 | 3360 ft | 236 kts | 265° |
| 2026-05-01 09:37 | 36.39165 | 27.96294 | 3731 ft | 254 kts | 265° |
| 2026-05-01 09:37 | 36.38822 | 27.91854 | 5323 ft | 260 kts | 265° |
| 2026-05-01 09:37 | 36.38647 | 27.89612 | 6151 ft | 262 kts | 265° |
| 2026-05-01 09:38 | 36.38330 | 27.85058 | 7712 ft | 268 kts | 269° |
| 2026-05-01 09:38 | 36.38347 | 27.82739 | 8484 ft | 270 kts | 271° |
| 2026-05-01 09:38 | 36.38397 | 27.80395 | 9231 ft | 273 kts | 271° |
| 2026-05-01 09:39 | 36.38469 | 27.75629 | 10533 ft | 287 kts | 270° |
| 2026-05-01 09:39 | 36.38503 | 27.73048 | 10709 ft | 310 kts | 272° |
| 2026-05-01 09:39 | 36.38721 | 27.70299 | 10879 ft | 331 kts | 277° |
| 2026-05-01 09:40 | 36.39089 | 27.67412 | 11279 ft | 343 kts | 278° |
| 2026-05-01 09:40 | 36.39903 | 27.61527 | 12668 ft | 347 kts | 278° |
| 2026-05-01 09:40 | 36.40295 | 27.58618 | 13757 ft | 336 kts | 278° |
| 2026-05-01 09:41 | 36.40665 | 27.55811 | 14919 ft | 322 kts | 278° |
| 2026-05-01 09:41 | 36.41377 | 27.50227 | 16065 ft | 335 kts | 277° |
| 2026-05-01 09:41 | 36.41733 | 27.47380 | 16506 ft | 343 kts | 277° |
| 2026-05-01 09:42 | 36.42106 | 27.44373 | 16646 ft | 360 kts | 277° |
| 2026-05-01 09:42 | 36.42492 | 27.41259 | 17040 ft | 367 kts | 277° |
| 2026-05-01 09:42 | 36.43272 | 27.34959 | 18232 ft | 371 kts | 277° |
| 2026-05-01 09:43 | 36.44058 | 27.28575 | 19311 ft | 376 kts | 277° |
| 2026-05-01 09:43 | 36.44452 | 27.25355 | 19843 ft | 378 kts | 277° |
| 2026-05-01 09:43 | 36.44849 | 27.22112 | 20386 ft | 380 kts | 277° |
| 2026-05-01 09:44 | 36.45637 | 27.15640 | 21359 ft | 384 kts | 277° |
| 2026-05-01 09:44 | 36.46042 | 27.12312 | 21827 ft | 386 kts | 277° |
| 2026-05-01 09:44 | 36.46442 | 27.09006 | 22279 ft | 388 kts | 277° |
| 2026-05-01 09:45 | 36.46838 | 27.05733 | 22729 ft | 389 kts | 277° |
| 2026-05-01 09:45 | 36.47653 | 26.99047 | 23550 ft | 393 kts | 277° |
| 2026-05-01 09:45 | 36.48065 | 26.95675 | 23950 ft | 396 kts | 277° |
| 2026-05-01 09:46 | 36.48476 | 26.92285 | 24369 ft | 397 kts | 277° |
| 2026-05-01 09:46 | 36.48888 | 26.88886 | 24782 ft | 398 kts | 277° |
| 2026-05-01 09:46 | 36.49296 | 26.85475 | 25221 ft | 398 kts | 277° |
| 2026-05-01 09:46 | 36.49701 | 26.82069 | 25620 ft | 399 kts | 277° |
| 2026-05-01 09:47 | 36.50105 | 26.78648 | 25993 ft | 400 kts | 277° |
| 2026-05-01 09:47 | 36.50510 | 26.75222 | 26350 ft | 401 kts | 277° |
| 2026-05-01 09:47 | 36.50914 | 26.71792 | 26707 ft | 401 kts | 277° |
| 2026-05-01 09:47 | 36.51313 | 26.68398 | 27042 ft | 402 kts | 278° |
| 2026-05-01 09:48 | 36.51718 | 26.64958 | 27360 ft | 403 kts | 278° |
| 2026-05-01 09:48 | 36.52122 | 26.61511 | 27693 ft | 403 kts | 278° |
| 2026-05-01 09:48 | 36.52535 | 26.58059 | 28041 ft | 403 kts | 280° |
| 2026-05-01 09:48 | 36.53427 | 26.54754 | 28339 ft | 407 kts | 295° |
| 2026-05-01 09:49 | 36.54998 | 26.51803 | 28670 ft | 411 kts | 306° |
| 2026-05-01 09:49 | 36.57013 | 26.49254 | 29067 ft | 416 kts | 316° |
| 2026-05-01 09:49 | 36.59489 | 26.47332 | 29488 ft | 422 kts | 327° |
| 2026-05-01 09:49 | 36.62132 | 26.45760 | 29941 ft | 420 kts | 328° |
| 2026-05-01 09:50 | 36.64786 | 26.44262 | 30333 ft | 418 kts | 328° |
| 2026-05-01 09:50 | 36.67449 | 26.42767 | 30652 ft | 418 kts | 328° |
| 2026-05-01 09:50 | 36.70090 | 26.41268 | 30961 ft | 417 kts | 328° |
| 2026-05-01 09:50 | 36.72685 | 26.39774 | 31269 ft | 416 kts | 328° |
| 2026-05-01 09:51 | 36.75305 | 26.38249 | 31542 ft | 415 kts | 328° |
| 2026-05-01 09:51 | 36.77915 | 26.36719 | 31867 ft | 414 kts | 328° |
| 2026-05-01 09:51 | 36.80516 | 26.35191 | 32187 ft | 412 kts | 327° |
| 2026-05-01 09:51 | 36.83107 | 26.33665 | 32472 ft | 411 kts | 327° |
| 2026-05-01 09:52 | 36.85700 | 26.32137 | 32737 ft | 411 kts | 327° |
| 2026-05-01 09:52 | 36.88288 | 26.30612 | 33005 ft | 411 kts | 327° |
| 2026-05-01 09:52 | 36.90869 | 26.29090 | 33279 ft | 410 kts | 327° |
| 2026-05-01 09:52 | 36.93449 | 26.27567 | 33537 ft | 409 kts | 327° |
| 2026-05-01 09:53 | 36.96027 | 26.26046 | 33802 ft | 408 kts | 327° |
| 2026-05-01 09:53 | 36.98585 | 26.24534 | 34119 ft | 406 kts | 327° |
| 2026-05-01 09:53 | 37.01127 | 26.23004 | 34341 ft | 406 kts | 327° |
| 2026-05-01 09:53 | 37.03672 | 26.21452 | 34471 ft | 408 kts | 327° |
| 2026-05-01 09:54 | 37.06227 | 26.19885 | 34665 ft | 408 kts | 327° |
| 2026-05-01 09:54 | 37.08772 | 26.18325 | 34885 ft | 407 kts | 327° |
| 2026-05-01 09:54 | 37.11323 | 26.16762 | 35040 ft | 408 kts | 327° |
| 2026-05-01 09:54 | 37.13841 | 26.15220 | 35231 ft | 408 kts | 327° |
| 2026-05-01 09:55 | 37.16392 | 26.13659 | 35405 ft | 408 kts | 327° |
| 2026-05-01 09:55 | 37.18947 | 26.12093 | 35532 ft | 410 kts | 327° |
| 2026-05-01 09:55 | 37.21510 | 26.10523 | 35711 ft | 409 kts | 326° |
| 2026-05-01 09:55 | 37.24074 | 26.08952 | 35885 ft | 409 kts | 327° |
| 2026-05-01 09:56 | 37.26630 | 26.07384 | 36032 ft | 410 kts | 326° |
| 2026-05-01 09:56 | 37.29206 | 26.05801 | 36053 ft | 413 kts | 326° |
| 2026-05-01 09:56 | 37.34355 | 26.02636 | 36058 ft | 411 kts | 326° |
| 2026-05-01 09:57 | 37.39470 | 25.99490 | 36053 ft | 408 kts | 326° |
| 2026-05-01 09:57 | 37.44552 | 25.96355 | 36067 ft | 406 kts | 326° |
| 2026-05-01 09:58 | 37.49611 | 25.93231 | 36075 ft | 405 kts | 326° |
| 2026-05-01 09:58 | 37.54665 | 25.90104 | 36077 ft | 404 kts | 326° |
| 2026-05-01 09:59 | 37.59718 | 25.86974 | 36085 ft | 405 kts | 326° |
| 2026-05-01 09:59 | 37.64789 | 25.83828 | 36083 ft | 407 kts | 326° |
| 2026-05-01 10:00 | 37.69850 | 25.80681 | 36085 ft | 409 kts | 326° |
| 2026-05-01 10:00 | 37.74965 | 25.77495 | 36085 ft | 411 kts | 326° |
| 2026-05-01 10:01 | 37.80107 | 25.74287 | 36087 ft | 413 kts | 326° |
| 2026-05-01 10:01 | 37.85275 | 25.71062 | 36082 ft | 415 kts | 326° |
| 2026-05-01 10:02 | 37.90467 | 25.67815 | 36082 ft | 416 kts | 326° |
| 2026-05-01 10:02 | 37.94783 | 25.65110 | 36085 ft | 416 kts | 326° |
| 2026-05-01 10:03 | 37.99972 | 25.61855 | 36080 ft | 416 kts | 326° |
| 2026-05-01 10:03 | 38.05148 | 25.58602 | 36086 ft | 415 kts | 326° |
| 2026-05-01 10:04 | 38.10319 | 25.55349 | 36091 ft | 414 kts | 326° |
| 2026-05-01 10:04 | 38.15475 | 25.52099 | 36092 ft | 413 kts | 326° |
| 2026-05-01 10:05 | 38.20614 | 25.48851 | 36097 ft | 413 kts | 326° |
| 2026-05-01 10:05 | 38.25759 | 25.45597 | 36090 ft | 412 kts | 326° |
| 2026-05-01 10:06 | 38.30893 | 25.42345 | 36089 ft | 412 kts | 326° |
| 2026-05-01 10:06 | 38.35986 | 25.39115 | 36103 ft | 412 kts | 326° |
| 2026-05-01 10:07 | 38.41110 | 25.35860 | 36111 ft | 411 kts | 326° |
| 2026-05-01 10:07 | 38.46231 | 25.32600 | 36112 ft | 411 kts | 326° |
| 2026-05-01 10:08 | 38.53919 | 25.27695 | 36120 ft | 412 kts | 326° |
| 2026-05-01 10:09 | 38.59066 | 25.24404 | 36120 ft | 413 kts | 326° |
| 2026-05-01 10:09 | 38.64220 | 25.21106 | 36121 ft | 415 kts | 326° |
| 2026-05-01 10:10 | 38.69349 | 25.17819 | 36145 ft | 415 kts | 326° |
| 2026-05-01 10:10 | 38.77109 | 25.12834 | 36144 ft | 417 kts | 326° |
| 2026-05-01 10:11 | 38.82296 | 25.09494 | 36147 ft | 418 kts | 326° |
| 2026-05-01 10:11 | 38.87498 | 25.06138 | 36146 ft | 419 kts | 326° |
| 2026-05-01 10:12 | 38.92707 | 25.02776 | 36159 ft | 419 kts | 326° |
| 2026-05-01 10:13 | 39.00535 | 24.97710 | 36167 ft | 419 kts | 326° |
| 2026-05-01 10:13 | 39.05720 | 24.94346 | 36166 ft | 419 kts | 326° |
| 2026-05-01 10:14 | 39.13567 | 24.89316 | 36178 ft | 420 kts | 327° |
| 2026-05-01 10:14 | 39.18848 | 24.86066 | 36177 ft | 420 kts | 327° |
| 2026-05-01 10:15 | 39.24123 | 24.82814 | 36189 ft | 420 kts | 327° |
| 2026-05-01 10:15 | 39.29396 | 24.79541 | 36193 ft | 420 kts | 327° |
| 2026-05-01 10:16 | 39.34668 | 24.76259 | 36195 ft | 421 kts | 327° |
| 2026-05-01 10:17 | 39.42555 | 24.71340 | 36190 ft | 421 kts | 327° |
| 2026-05-01 10:17 | 39.50497 | 24.66366 | 36196 ft | 422 kts | 327° |
| 2026-05-01 10:18 | 39.58420 | 24.61400 | 36198 ft | 424 kts | 327° |
| 2026-05-01 10:19 | 39.63742 | 24.58058 | 36204 ft | 425 kts | 327° |
| 2026-05-01 10:19 | 39.69063 | 24.54709 | 36202 ft | 425 kts | 327° |
| 2026-05-01 10:20 | 39.77062 | 24.49664 | 36203 ft | 426 kts | 327° |
| 2026-05-01 10:20 | 39.82405 | 24.46287 | 36202 ft | 427 kts | 327° |
| 2026-05-01 10:21 | 39.90400 | 24.41224 | 36203 ft | 428 kts | 327° |
| 2026-05-01 10:22 | 39.98422 | 24.36128 | 36208 ft | 427 kts | 327° |
| 2026-05-01 10:23 | 40.06434 | 24.31026 | 36212 ft | 427 kts | 327° |
| 2026-05-01 10:23 | 40.14431 | 24.25918 | 36213 ft | 426 kts | 327° |
| 2026-05-01 10:24 | 40.25090 | 24.19093 | 36218 ft | 427 kts | 327° |
| 2026-05-01 10:25 | 40.35748 | 24.12243 | 36215 ft | 428 kts | 327° |
| 2026-05-01 10:26 | 40.41098 | 24.08795 | 36202 ft | 428 kts | 327° |
| 2026-05-01 10:27 | 40.51782 | 24.01890 | 36217 ft | 428 kts | 327° |
| 2026-05-01 10:28 | 40.59881 | 23.96890 | 36215 ft | 434 kts | 335° |
| 2026-05-01 10:29 | 40.77613 | 23.92503 | 36221 ft | 442 kts | 343° |
| 2026-05-01 10:30 | 40.89696 | 23.89633 | 36228 ft | 443 kts | 343° |
| 2026-05-01 10:31 | 41.01851 | 23.86717 | 36231 ft | 444 kts | 344° |
| 2026-05-01 10:32 | 41.10930 | 23.84534 | 36241 ft | 444 kts | 344° |
| 2026-05-01 10:33 | 41.23085 | 23.81602 | 36239 ft | 443 kts | 345° |
| 2026-05-01 10:34 | 41.32184 | 23.79402 | 36251 ft | 443 kts | 345° |
| 2026-05-01 10:34 | 41.38253 | 23.77937 | 36249 ft | 444 kts | 345° |
| 2026-05-01 10:35 | 41.47408 | 23.75906 | 36258 ft | 446 kts | 346° |
| 2026-05-01 10:35 | 41.53545 | 23.74664 | 36252 ft | 445 kts | 347° |
| 2026-05-01 10:36 | 41.62724 | 23.72774 | 36270 ft | 445 kts | 347° |
| 2026-05-01 10:37 | 41.68826 | 23.71501 | 36280 ft | 446 kts | 347° |
| 2026-05-01 10:37 | 41.78054 | 23.69566 | 36276 ft | 448 kts | 347° |
| 2026-05-01 10:38 | 41.84230 | 23.68268 | 36273 ft | 449 kts | 347° |
| 2026-05-01 10:38 | 41.90407 | 23.66967 | 36284 ft | 449 kts | 347° |
| 2026-05-01 10:39 | 41.96578 | 23.65666 | 36291 ft | 449 kts | 347° |
| 2026-05-01 10:39 | 42.02771 | 23.64356 | 36271 ft | 450 kts | 347° |
| 2026-05-01 10:40 | 42.08941 | 23.63050 | 36272 ft | 448 kts | 347° |
| 2026-05-01 10:40 | 42.15059 | 23.61753 | 36278 ft | 447 kts | 347° |
| 2026-05-01 10:41 | 42.21199 | 23.60446 | 36294 ft | 446 kts | 347° |
| 2026-05-01 10:42 | 42.30365 | 23.58488 | 36305 ft | 444 kts | 347° |
| 2026-05-01 10:42 | 42.36485 | 23.57181 | 36294 ft | 445 kts | 347° |
| 2026-05-01 10:43 | 42.42616 | 23.55870 | 36300 ft | 446 kts | 347° |
| 2026-05-01 10:43 | 42.48708 | 23.54564 | 36286 ft | 446 kts | 347° |
| 2026-05-01 10:44 | 42.54845 | 23.53244 | 36297 ft | 446 kts | 347° |
| 2026-05-01 10:44 | 42.60985 | 23.51921 | 36296 ft | 447 kts | 347° |
| 2026-05-01 10:45 | 42.67129 | 23.50594 | 36294 ft | 447 kts | 347° |
| 2026-05-01 10:45 | 42.73280 | 23.49265 | 36296 ft | 447 kts | 348° |
| 2026-05-01 10:46 | 42.79428 | 23.47933 | 36293 ft | 447 kts | 348° |
| 2026-05-01 10:46 | 42.85541 | 23.46605 | 36300 ft | 447 kts | 348° |
| 2026-05-01 10:47 | 42.91676 | 23.45270 | 36298 ft | 446 kts | 348° |
| 2026-05-01 10:47 | 42.97815 | 23.43934 | 36293 ft | 446 kts | 348° |
| 2026-05-01 10:48 | 43.03950 | 23.42594 | 36295 ft | 446 kts | 348° |
| 2026-05-01 10:48 | 43.10078 | 23.41252 | 36297 ft | 446 kts | 348° |
| 2026-05-01 10:49 | 43.16201 | 23.39908 | 36302 ft | 445 kts | 348° |
| 2026-05-01 10:49 | 43.22299 | 23.38567 | 36311 ft | 443 kts | 348° |
| 2026-05-01 10:50 | 43.28390 | 23.37226 | 36308 ft | 443 kts | 348° |
| 2026-05-01 10:50 | 43.34433 | 23.35892 | 36302 ft | 443 kts | 348° |
| 2026-05-01 10:51 | 43.40526 | 23.34545 | 36308 ft | 442 kts | 348° |
| 2026-05-01 10:51 | 43.46616 | 23.33196 | 36302 ft | 442 kts | 349° |
| 2026-05-01 10:52 | 43.52689 | 23.31849 | 36311 ft | 443 kts | 349° |
| 2026-05-01 10:52 | 43.58781 | 23.30493 | 36319 ft | 443 kts | 349° |
| 2026-05-01 10:53 | 43.64824 | 23.29146 | 36319 ft | 443 kts | 349° |
| 2026-05-01 10:53 | 43.70909 | 23.27786 | 36325 ft | 443 kts | 349° |
| 2026-05-01 10:54 | 43.76994 | 23.26422 | 36320 ft | 443 kts | 349° |
| 2026-05-01 10:54 | 43.83106 | 23.25046 | 36330 ft | 443 kts | 348° |
| 2026-05-01 10:55 | 43.89081 | 23.23012 | 36325 ft | 443 kts | 342° |
| 2026-05-01 10:55 | 43.94980 | 23.20654 | 36329 ft | 443 kts | 342° |
| 2026-05-01 10:56 | 44.00922 | 23.18287 | 36375 ft | 446 kts | 342° |
| 2026-05-01 10:56 | 44.03912 | 23.17114 | 36612 ft | 445 kts | 343° |
| 2026-05-01 10:56 | 44.06870 | 23.15965 | 37019 ft | 438 kts | 343° |
| 2026-05-01 10:56 | 44.09795 | 23.14834 | 37439 ft | 432 kts | 343° |
| 2026-05-01 10:57 | 44.12647 | 23.13734 | 37613 ft | 432 kts | 343° |
| 2026-05-01 10:57 | 44.18474 | 23.11483 | 37764 ft | 436 kts | 343° |
| 2026-05-01 10:57 | 44.21403 | 23.10349 | 37877 ft | 436 kts | 343° |
| 2026-05-01 10:58 | 44.24335 | 23.09214 | 38039 ft | 436 kts | 343° |
| 2026-05-01 10:58 | 44.27255 | 23.08081 | 38179 ft | 436 kts | 343° |
| 2026-05-01 10:58 | 44.30174 | 23.06948 | 38280 ft | 434 kts | 343° |
| 2026-05-01 10:59 | 44.36011 | 23.04677 | 38327 ft | 437 kts | 343° |
| 2026-05-01 10:59 | 44.41846 | 23.02401 | 38342 ft | 440 kts | 343° |
| 2026-05-01 11:00 | 44.47758 | 23.00090 | 38340 ft | 442 kts | 343° |
| 2026-05-01 11:00 | 44.53701 | 22.97764 | 38336 ft | 443 kts | 343° |
| 2026-05-01 11:01 | 44.59647 | 22.95431 | 38333 ft | 444 kts | 343° |
| 2026-05-01 11:01 | 44.65591 | 22.93092 | 38324 ft | 442 kts | 343° |
| 2026-05-01 11:02 | 44.71507 | 22.90763 | 38327 ft | 440 kts | 343° |
| 2026-05-01 11:02 | 44.77358 | 22.88454 | 38326 ft | 438 kts | 343° |
| 2026-05-01 11:03 | 44.83199 | 22.86144 | 38329 ft | 436 kts | 343° |
| 2026-05-01 11:03 | 44.89034 | 22.83829 | 38329 ft | 434 kts | 343° |
| 2026-05-01 11:04 | 44.94830 | 22.81526 | 38329 ft | 432 kts | 343° |
| 2026-05-01 11:04 | 45.00608 | 22.79225 | 38337 ft | 430 kts | 344° |
| 2026-05-01 11:05 | 45.06335 | 22.76941 | 38331 ft | 429 kts | 344° |
| 2026-05-01 11:05 | 45.12076 | 22.74645 | 38335 ft | 429 kts | 344° |
| 2026-05-01 11:06 | 45.17831 | 22.72338 | 38334 ft | 429 kts | 344° |
| 2026-05-01 11:06 | 45.23585 | 22.70029 | 38330 ft | 430 kts | 344° |
| 2026-05-01 11:07 | 45.32250 | 22.66541 | 38338 ft | 432 kts | 344° |
| 2026-05-01 11:07 | 45.38041 | 22.64203 | 38332 ft | 433 kts | 344° |
| 2026-05-01 11:08 | 45.43810 | 22.61867 | 38332 ft | 435 kts | 344° |
| 2026-05-01 11:09 | 45.52559 | 22.58319 | 38323 ft | 436 kts | 345° |
| 2026-05-01 11:09 | 45.58402 | 22.55944 | 38321 ft | 436 kts | 345° |
| 2026-05-01 11:10 | 45.66182 | 22.52773 | 38325 ft | 436 kts | 345° |
| 2026-05-01 11:10 | 45.72015 | 22.50388 | 38336 ft | 435 kts | 345° |
| 2026-05-01 11:11 | 45.77824 | 22.48007 | 38340 ft | 434 kts | 345° |
| 2026-05-01 11:11 | 45.83627 | 22.45625 | 38335 ft | 432 kts | 345° |
| 2026-05-01 11:12 | 45.89402 | 22.43250 | 38324 ft | 431 kts | 345° |
| 2026-05-01 11:12 | 45.95166 | 22.40873 | 38322 ft | 430 kts | 345° |
| 2026-05-01 11:13 | 46.00897 | 22.38506 | 38326 ft | 428 kts | 345° |
| 2026-05-01 11:13 | 46.06580 | 22.36152 | 38333 ft | 427 kts | 345° |
| 2026-05-01 11:14 | 46.12290 | 22.33781 | 38335 ft | 426 kts | 345° |
| 2026-05-01 11:14 | 46.17990 | 22.31411 | 38332 ft | 426 kts | 345° |
| 2026-05-01 11:15 | 46.23700 | 22.29032 | 38332 ft | 427 kts | 345° |
| 2026-05-01 11:15 | 46.29408 | 22.26648 | 38340 ft | 427 kts | 345° |
| 2026-05-01 11:16 | 46.35089 | 22.24269 | 38344 ft | 428 kts | 345° |
| 2026-05-01 11:16 | 46.40812 | 22.21867 | 38346 ft | 428 kts | 345° |
| 2026-05-01 11:17 | 46.46552 | 22.19454 | 38343 ft | 429 kts | 345° |
| 2026-05-01 11:17 | 46.52294 | 22.17033 | 38326 ft | 430 kts | 345° |
| 2026-05-01 11:18 | 46.58048 | 22.14605 | 38324 ft | 430 kts | 345° |
| 2026-05-01 11:18 | 46.63768 | 22.12187 | 38328 ft | 430 kts | 346° |
| 2026-05-01 11:19 | 46.69529 | 22.09743 | 38323 ft | 431 kts | 346° |
| 2026-05-01 11:19 | 46.75286 | 22.07293 | 38320 ft | 431 kts | 346° |
| 2026-05-01 11:20 | 46.81036 | 22.04842 | 38322 ft | 430 kts | 346° |
| 2026-05-01 11:20 | 46.86776 | 22.02392 | 38322 ft | 429 kts | 346° |
| 2026-05-01 11:21 | 46.92467 | 21.99957 | 38325 ft | 428 kts | 346° |
| 2026-05-01 11:21 | 46.98193 | 21.97499 | 38330 ft | 427 kts | 346° |
| 2026-05-01 11:22 | 47.03893 | 21.95052 | 38319 ft | 426 kts | 346° |
| 2026-05-01 11:22 | 47.09571 | 21.92605 | 38318 ft | 425 kts | 347° |
| 2026-05-01 11:23 | 47.15227 | 21.90160 | 38320 ft | 423 kts | 347° |
| 2026-05-01 11:23 | 47.20837 | 21.87737 | 38325 ft | 422 kts | 347° |
| 2026-05-01 11:24 | 47.26462 | 21.85295 | 38328 ft | 420 kts | 347° |
| 2026-05-01 11:25 | 47.34855 | 21.81640 | 38336 ft | 418 kts | 347° |
| 2026-05-01 11:25 | 47.43214 | 21.77988 | 38342 ft | 417 kts | 347° |
| 2026-05-01 11:26 | 47.51567 | 21.74320 | 38352 ft | 417 kts | 347° |
| 2026-05-01 11:27 | 47.57151 | 21.71866 | 38359 ft | 419 kts | 347° |
| 2026-05-01 11:27 | 47.62712 | 21.69419 | 38348 ft | 420 kts | 347° |
| 2026-05-01 11:28 | 47.68332 | 21.66935 | 38352 ft | 422 kts | 347° |
| 2026-05-01 11:28 | 47.73966 | 21.64441 | 38355 ft | 422 kts | 347° |
| 2026-05-01 11:29 | 47.82439 | 21.60673 | 38350 ft | 424 kts | 347° |
| 2026-05-01 11:30 | 47.90885 | 21.56910 | 38344 ft | 423 kts | 347° |
| 2026-05-01 11:30 | 47.96523 | 21.54389 | 38344 ft | 423 kts | 347° |
| 2026-05-01 11:31 | 48.02155 | 21.51869 | 38353 ft | 422 kts | 347° |
| 2026-05-01 11:31 | 48.07769 | 21.49344 | 38346 ft | 421 kts | 347° |
| 2026-05-01 11:32 | 48.13376 | 21.46821 | 38353 ft | 420 kts | 347° |
| 2026-05-01 11:32 | 48.18934 | 21.44315 | 38347 ft | 419 kts | 347° |
| 2026-05-01 11:33 | 48.24504 | 21.41799 | 38340 ft | 417 kts | 348° |
| 2026-05-01 11:33 | 48.30060 | 21.39279 | 38338 ft | 416 kts | 348° |
| 2026-05-01 11:34 | 48.35595 | 21.36763 | 38334 ft | 415 kts | 348° |
| 2026-05-01 11:34 | 48.41120 | 21.34248 | 38329 ft | 415 kts | 348° |
| 2026-05-01 11:35 | 48.46646 | 21.31729 | 38331 ft | 415 kts | 348° |
| 2026-05-01 11:35 | 48.52160 | 21.29211 | 38323 ft | 413 kts | 349° |
| 2026-05-01 11:36 | 48.57680 | 21.27177 | 38319 ft | 410 kts | 352° |
| 2026-05-01 11:36 | 48.63244 | 21.25352 | 38322 ft | 409 kts | 352° |
| 2026-05-01 11:37 | 48.68813 | 21.23496 | 38323 ft | 410 kts | 352° |
| 2026-05-01 11:37 | 48.74375 | 21.21610 | 38330 ft | 410 kts | 352° |
| 2026-05-01 11:38 | 48.79945 | 21.19697 | 38329 ft | 410 kts | 352° |
| 2026-05-01 11:38 | 48.85534 | 21.17769 | 38325 ft | 412 kts | 352° |
| 2026-05-01 11:39 | 48.91095 | 21.15849 | 38325 ft | 413 kts | 352° |
| 2026-05-01 11:39 | 48.96700 | 21.13911 | 38320 ft | 413 kts | 352° |
| 2026-05-01 11:40 | 49.02305 | 21.11970 | 38328 ft | 412 kts | 352° |
| 2026-05-01 11:40 | 49.07888 | 21.10032 | 38331 ft | 411 kts | 352° |
| 2026-05-01 11:41 | 49.13433 | 21.08097 | 38314 ft | 410 kts | 352° |
| 2026-05-01 11:41 | 49.18989 | 21.06160 | 38320 ft | 409 kts | 352° |
| 2026-05-01 11:42 | 49.24526 | 21.04227 | 38329 ft | 407 kts | 352° |
| 2026-05-01 11:42 | 49.30043 | 21.02296 | 38322 ft | 407 kts | 352° |
| 2026-05-01 11:43 | 49.35540 | 21.00079 | 38310 ft | 410 kts | 346° |
| 2026-05-01 11:43 | 49.40893 | 20.97045 | 38322 ft | 410 kts | 345° |
| 2026-05-01 11:44 | 49.48893 | 20.92400 | 38325 ft | 409 kts | 345° |
| 2026-05-01 11:44 | 49.54231 | 20.89331 | 38321 ft | 409 kts | 345° |
| 2026-05-01 11:45 | 49.59547 | 20.86290 | 38312 ft | 410 kts | 346° |
| 2026-05-01 11:45 | 49.64893 | 20.83228 | 38329 ft | 410 kts | 345° |
| 2026-05-01 11:46 | 49.70241 | 20.80161 | 38322 ft | 410 kts | 345° |
| 2026-05-01 11:46 | 49.75586 | 20.77085 | 38320 ft | 410 kts | 346° |
| 2026-05-01 11:47 | 49.80941 | 20.73996 | 38320 ft | 410 kts | 345° |
| 2026-05-01 11:47 | 49.86291 | 20.70904 | 38322 ft | 410 kts | 345° |
| 2026-05-01 11:48 | 49.91638 | 20.67803 | 38271 ft | 411 kts | 345° |
| 2026-05-01 11:48 | 49.94340 | 20.66237 | 37817 ft | 417 kts | 346° |
| 2026-05-01 11:48 | 49.97061 | 20.64655 | 37260 ft | 415 kts | 346° |
| 2026-05-01 11:49 | 49.99761 | 20.63079 | 36767 ft | 412 kts | 346° |
| 2026-05-01 11:49 | 50.02445 | 20.61514 | 36343 ft | 408 kts | 346° |
| 2026-05-01 11:49 | 50.05053 | 20.59990 | 35925 ft | 404 kts | 346° |
| 2026-05-01 11:49 | 50.07684 | 20.58521 | 35488 ft | 396 kts | 351° |
| 2026-05-01 11:50 | 50.10346 | 20.57630 | 35088 ft | 386 kts | 358° |
| 2026-05-01 11:50 | 50.12977 | 20.57255 | 34764 ft | 375 kts | 5° |
| 2026-05-01 11:50 | 50.15558 | 20.57425 | 34360 ft | 368 kts | 9° |
| 2026-05-01 11:50 | 50.18094 | 20.57701 | 33970 ft | 364 kts | 9° |
| 2026-05-01 11:51 | 50.20603 | 20.57984 | 33573 ft | 360 kts | 9° |
| 2026-05-01 11:51 | 50.23092 | 20.58260 | 33182 ft | 357 kts | 9° |
| 2026-05-01 11:51 | 50.25560 | 20.58528 | 32790 ft | 354 kts | 9° |
| 2026-05-01 11:51 | 50.27997 | 20.58788 | 32396 ft | 351 kts | 9° |
| 2026-05-01 11:52 | 50.30391 | 20.59039 | 32010 ft | 348 kts | 9° |
| 2026-05-01 11:52 | 50.32831 | 20.59294 | 31620 ft | 345 kts | 9° |
| 2026-05-01 11:52 | 50.35210 | 20.59541 | 31243 ft | 342 kts | 9° |
| 2026-05-01 11:52 | 50.37544 | 20.59784 | 30862 ft | 339 kts | 9° |
| 2026-05-01 11:53 | 50.39885 | 20.60027 | 30495 ft | 336 kts | 9° |
| 2026-05-01 11:53 | 50.42211 | 20.60269 | 30124 ft | 333 kts | 9° |
| 2026-05-01 11:53 | 50.44518 | 20.60510 | 29748 ft | 330 kts | 9° |
| 2026-05-01 11:53 | 50.46798 | 20.60748 | 29364 ft | 327 kts | 9° |
| 2026-05-01 11:54 | 50.49054 | 20.60984 | 28982 ft | 324 kts | 9° |
| 2026-05-01 11:54 | 50.51294 | 20.61218 | 28612 ft | 321 kts | 9° |
| 2026-05-01 11:54 | 50.53514 | 20.61451 | 28234 ft | 319 kts | 9° |
| 2026-05-01 11:54 | 50.55713 | 20.61681 | 27865 ft | 316 kts | 9° |
| 2026-05-01 11:55 | 50.57898 | 20.61909 | 27501 ft | 313 kts | 9° |
| 2026-05-01 11:55 | 50.60065 | 20.62134 | 27137 ft | 310 kts | 9° |
| 2026-05-01 11:55 | 50.62213 | 20.62358 | 26777 ft | 308 kts | 9° |
| 2026-05-01 11:55 | 50.64345 | 20.62580 | 26414 ft | 306 kts | 9° |
| 2026-05-01 11:56 | 50.66457 | 20.62802 | 26056 ft | 303 kts | 9° |
| 2026-05-01 11:56 | 50.68553 | 20.63022 | 25733 ft | 300 kts | 9° |
| 2026-05-01 11:56 | 50.70603 | 20.63236 | 25502 ft | 299 kts | 9° |
| 2026-05-01 11:56 | 50.72706 | 20.63461 | 25260 ft | 306 kts | 9° |
| 2026-05-01 11:57 | 50.74821 | 20.63685 | 24979 ft | 303 kts | 9° |
| 2026-05-01 11:57 | 50.76218 | 20.63832 | 24764 ft | 307 kts | 9° |
| 2026-05-01 11:57 | 50.79205 | 20.64159 | 24293 ft | 336 kts | 8° |
| 2026-05-01 11:57 | 50.81558 | 20.64412 | 23876 ft | 340 kts | 8° |
| 2026-05-01 11:58 | 50.83912 | 20.64656 | 23459 ft | 337 kts | 8° |
| 2026-05-01 11:58 | 50.86238 | 20.64895 | 23055 ft | 334 kts | 8° |
| 2026-05-01 11:58 | 50.91027 | 20.65403 | 22255 ft | 355 kts | 8° |
| 2026-05-01 11:59 | 50.93497 | 20.65664 | 21816 ft | 356 kts | 8° |
| 2026-05-01 11:59 | 50.95929 | 20.65919 | 21394 ft | 353 kts | 8° |
| 2026-05-01 11:59 | 50.98377 | 20.66175 | 20972 ft | 352 kts | 8° |
| 2026-05-01 12:00 | 51.03239 | 20.66689 | 20133 ft | 348 kts | 7° |
| 2026-05-01 12:00 | 51.05654 | 20.66946 | 19716 ft | 347 kts | 7° |
| 2026-05-01 12:00 | 51.09669 | 20.67376 | 19035 ft | 352 kts | 7° |
| 2026-05-01 12:01 | 51.12126 | 20.67639 | 18605 ft | 356 kts | 7° |
| 2026-05-01 12:01 | 51.14597 | 20.67903 | 18171 ft | 354 kts | 7° |
| 2026-05-01 12:01 | 51.17037 | 20.68163 | 17747 ft | 350 kts | 7° |
| 2026-05-01 12:01 | 51.19466 | 20.68422 | 17320 ft | 347 kts | 7° |
| 2026-05-01 12:02 | 51.21865 | 20.68680 | 16910 ft | 344 kts | 7° |
| 2026-05-01 12:02 | 51.24251 | 20.68936 | 16497 ft | 343 kts | 7° |
| 2026-05-01 12:02 | 51.26629 | 20.69192 | 16083 ft | 342 kts | 7° |
| 2026-05-01 12:02 | 51.28982 | 20.69620 | 15653 ft | 339 kts | 16° |
| 2026-05-01 12:03 | 51.31217 | 20.70765 | 15263 ft | 337 kts | 20° |
| 2026-05-01 12:03 | 51.33432 | 20.72009 | 14843 ft | 337 kts | 20° |
| 2026-05-01 12:03 | 51.35643 | 20.73257 | 14422 ft | 337 kts | 20° |
| 2026-05-01 12:03 | 51.37854 | 20.74502 | 14012 ft | 337 kts | 20° |
| 2026-05-01 12:04 | 51.40040 | 20.75724 | 13602 ft | 336 kts | 20° |
| 2026-05-01 12:04 | 51.42257 | 20.76958 | 13198 ft | 338 kts | 20° |
| 2026-05-01 12:04 | 51.44472 | 20.78186 | 12778 ft | 336 kts | 20° |
| 2026-05-01 12:04 | 51.46675 | 20.79411 | 12367 ft | 335 kts | 20° |
| 2026-05-01 12:05 | 51.48873 | 20.80630 | 11964 ft | 333 kts | 20° |
| 2026-05-01 12:05 | 51.53233 | 20.83046 | 11159 ft | 330 kts | 19° |
| 2026-05-01 12:05 | 51.55399 | 20.84249 | 10768 ft | 330 kts | 19° |
| 2026-05-01 12:06 | 51.57575 | 20.85458 | 10373 ft | 331 kts | 19° |
| 2026-05-01 12:06 | 51.59760 | 20.86670 | 9968 ft | 332 kts | 19° |
| 2026-05-01 12:06 | 51.61914 | 20.87868 | 9566 ft | 333 kts | 19° |
| 2026-05-01 12:06 | 51.64135 | 20.89109 | 9129 ft | 334 kts | 19° |
| 2026-05-01 12:07 | 51.66294 | 20.90317 | 8663 ft | 331 kts | 18° |
| 2026-05-01 12:07 | 51.68476 | 20.91533 | 8162 ft | 331 kts | 18° |
| 2026-05-01 12:07 | 51.70653 | 20.92749 | 7620 ft | 332 kts | 18° |
| 2026-05-01 12:07 | 51.72832 | 20.93968 | 7120 ft | 332 kts | 18° |
| 2026-05-01 12:08 | 51.75029 | 20.95195 | 6652 ft | 335 kts | 18° |
| 2026-05-01 12:08 | 51.77238 | 20.96431 | 6131 ft | 336 kts | 18° |
| 2026-05-01 12:08 | 51.79447 | 20.97663 | 5631 ft | 335 kts | 18° |
| 2026-05-01 12:08 | 51.81637 | 20.98890 | 5222 ft | 330 kts | 18° |
| 2026-05-01 12:09 | 51.83782 | 21.00096 | 4951 ft | 322 kts | 18° |
| 2026-05-01 12:09 | 51.85880 | 21.01277 | 4674 ft | 316 kts | 19° |
| 2026-05-01 12:09 | 51.87906 | 21.02436 | 4438 ft | 300 kts | 18° |
| 2026-05-01 12:09 | 51.89815 | 21.03511 | 4251 ft | 284 kts | 17° |
| 2026-05-01 12:10 | 51.91633 | 21.04544 | 4064 ft | 270 kts | 19° |
| 2026-05-01 12:10 | 51.94945 | 21.06424 | 3933 ft | 239 kts | 18° |
| 2026-05-01 12:10 | 51.96498 | 21.07292 | 3854 ft | 234 kts | 18° |
| 2026-05-01 12:11 | 51.99558 | 21.09022 | 3504 ft | 224 kts | 17° |
| 2026-05-01 12:11 | 52.01077 | 21.09368 | 3106 ft | 220 kts | 348° |
| 2026-05-01 12:11 | 52.02466 | 21.08629 | 3098 ft | 201 kts | 336° |
| 2026-05-01 12:12 | 52.03757 | 21.07799 | 2889 ft | 196 kts | 341° |
| 2026-05-01 12:12 | 52.04962 | 21.06934 | 2666 ft | 186 kts | 330° |
| 2026-05-01 12:12 | 52.06076 | 21.05899 | 2502 ft | 187 kts | 327° |
| 2026-05-01 12:12 | 52.07280 | 21.04927 | 2244 ft | 186 kts | 332° |
| 2026-05-01 12:13 | 52.08398 | 21.03912 | 1868 ft | 189 kts | 326° |
| 2026-05-01 12:13 | 52.09493 | 21.02839 | 1724 ft | 177 kts | 333° |
| 2026-05-01 12:13 | 52.10561 | 21.01975 | 1438 ft | 167 kts | 334° |
| 2026-05-01 12:13 | 52.11556 | 21.01093 | 1317 ft | 159 kts | 331° |
| 2026-05-01 12:14 | 52.12520 | 21.00238 | 1138 ft | 152 kts | 335° |
| 2026-05-01 12:14 | 52.13432 | 20.99450 | 837 ft | 146 kts | 332° |
| 2026-05-01 12:14 | 52.14294 | 20.98690 | 634 ft | 138 kts | 333° |
| 2026-05-01 12:14 | 52.15150 | 20.97955 | 436 ft | 140 kts | 333° |
| 2026-05-01 12:15 | 52.15972 | 20.97235 | 342 ft | 135 kts | 332° |
| 2026-05-01 12:15 | 52.16695 | 20.96608 | 337 ft | 91 kts | 331° |
| 2026-05-01 12:15 | 52.17105 | 20.96266 | 334 ft | 40 kts | 345° |
| 2026-05-01 12:15 | 52.17343 | 20.96246 | 338 ft | 20 kts | 4° |
| 2026-05-01 12:16 | 52.17426 | 20.96376 | 336 ft | 17 kts | 61° |
| 2026-05-01 12:16 | 52.17469 | 20.96540 | 336 ft | 14 kts | 108° |
| 2026-05-01 12:16 | 52.17400 | 20.96627 | 338 ft | 13 kts | 150° |
| 2026-05-01 12:16 | 52.17321 | 20.96697 | 334 ft | 13 kts | 152° |
| 2026-05-01 12:17 | 52.17246 | 20.96761 | 338 ft | 12 kts | 152° |
| 2026-05-01 12:17 | 52.17170 | 20.96827 | 338 ft | 12 kts | 152° |
| 2026-05-01 12:17 | 52.17097 | 20.96893 | 336 ft | 12 kts | 150° |
| 2026-05-01 12:17 | 52.17026 | 20.96957 | 337 ft | 12 kts | 152° |
| 2026-05-01 12:18 | 52.16955 | 20.97017 | 336 ft | 11 kts | 150° |
| 2026-05-01 12:18 | 52.16888 | 20.97077 | 334 ft | 11 kts | 152° |
| 2026-05-01 12:18 | 52.16824 | 20.97133 | 338 ft | 6 kts | 152° |
| 2026-05-01 12:18 | 52.16809 | 20.97130 | 338 ft | 2 kts | 206° |
| 2026-05-01 12:19 | 52.16793 | 20.97096 | 338 ft | 5 kts | 243° |
| 2026-05-01 12:19 | 52.16793 | 20.97038 | 333 ft | 3 kts | 276° |
| 2026-05-01 12:19 | 52.16794 | 20.97021 | 338 ft | 0 kts | 276° |